Time;durP1;ratioP1;P1;durP2;ratioP2;P2;SDS_P1;SDS_P2;PMS_P1;PMS_P2;Temp;Humidity;BMP_temperature;BMP_pressure;BME280_temperature;BME280_humidity;BME280_pressure;Samples;Min_cycle;Max_cycle;Signal;HPM_P1;HPM_P2
2022/11/02 00:01:49;;;;;;;54.75;30.95;;;12.30;99.90;;;;;;5029959;28;20700;-79
2022/11/02 00:04:40;;;;;;;48.00;29.88;;;12.40;99.90;;;;;;5023056;28;20700;-76
2022/11/02 00:07:28;;;;;;;49.10;29.20;;;12.40;99.90;;;;;;5026732;28;20243;-77
2022/11/02 00:10:18;;;;;;;51.10;29.83;;;12.50;99.90;;;;;;5023282;28;20237;-76
2022/11/02 00:13:07;;;;;;;48.97;29.40;;;12.50;99.90;;;;;;5026315;28;20244;-77
2022/11/02 00:15:56;;;;;;;50.28;29.58;;;12.50;99.90;;;;;;5040037;28;20239;-75
2022/11/02 00:18:47;;;;;;;52.90;30.30;;;12.50;99.90;;;;;;5038813;28;20217;-77
2022/11/02 00:21:38;;;;;;;51.85;29.48;;;12.40;99.90;;;;;;5022092;28;20221;-78
2022/11/02 00:24:27;;;;;;;51.30;30.70;;;12.50;99.90;;;;;;5027633;28;20243;-77
2022/11/02 00:27:16;;;;;;;53.65;30.02;;;12.50;99.90;;;;;;5042267;28;20213;-77
2022/11/02 00:30:06;;;;;;;53.67;30.50;;;12.50;99.90;;;;;;5027854;28;20229;-76
2022/11/02 00:32:55;;;;;;;57.33;30.30;;;12.50;99.90;;;;;;5035975;28;20716;-78
2022/11/02 00:35:45;;;;;;;51.47;31.52;;;12.50;99.90;;;;;;5030847;28;20239;-79
2022/11/02 00:38:35;;;;;;;53.08;31.08;;;12.50;99.90;;;;;;5043245;28;20225;-79
2022/11/02 00:41:24;;;;;;;57.85;31.67;;;12.50;99.90;;;;;;5054968;28;20271;-78
2022/11/02 00:44:13;;;;;;;55.45;31.15;;;12.50;99.90;;;;;;5048647;28;20237;-79
2022/11/02 00:47:02;;;;;;;54.65;30.30;;;12.50;99.90;;;;;;5039478;28;20221;-79
2022/11/02 00:49:50;;;;;;;56.95;32.50;;;12.50;99.90;;;;;;5046913;28;20220;-79
2022/11/02 00:52:39;;;;;;;51.28;32.00;;;12.50;99.90;;;;;;5039715;28;20355;-78
2022/11/02 00:55:29;;;;;;;52.95;33.10;;;12.50;99.90;;;;;;5040676;28;20236;-78
2022/11/02 00:58:23;;;;;;;54.83;32.28;;;12.40;99.90;;;;;;5027268;28;20251;-79
2022/11/02 01:01:12;;;;;;;51.65;32.80;;;12.40;99.90;;;;;;5041318;28;20232;-77
2022/11/02 01:04:01;;;;;;;57.15;34.28;;;12.40;99.90;;;;;;5026539;28;20217;-78
2022/11/02 01:06:50;;;;;;;54.60;33.72;;;12.40;99.90;;;;;;5041101;28;20308;-75
2022/11/02 01:09:39;;;;;;;54.25;33.83;;;12.40;99.90;;;;;;5045446;28;20310;-78
2022/11/02 01:12:29;;;;;;;51.45;32.70;;;12.50;99.90;;;;;;5024174;28;20220;-76
2022/11/02 01:15:18;;;;;;;54.65;33.38;;;12.50;99.90;;;;;;5048507;28;20735;-77
2022/11/02 01:18:08;;;;;;;55.42;32.47;;;12.60;99.90;;;;;;5045734;28;20218;-78
2022/11/02 01:20:56;;;;;;;55.28;34.80;;;12.70;99.90;;;;;;5031532;28;20232;-78
2022/11/02 01:23:45;;;;;;;53.35;34.25;;;12.70;99.90;;;;;;5048029;28;20970;-79
2022/11/02 01:26:34;;;;;;;51.60;33.45;;;12.70;99.90;;;;;;5038684;28;20225;-77
2022/11/02 01:29:24;;;;;;;61.00;35.17;;;12.70;99.90;;;;;;5058171;28;20227;-76
2022/11/02 01:32:13;;;;;;;54.28;34.17;;;12.80;99.90;;;;;;5059587;28;20696;-76
2022/11/02 01:35:02;;;;;;;57.55;36.05;;;12.70;99.90;;;;;;5033898;28;20347;-75
2022/11/02 01:37:51;;;;;;;57.80;36.20;;;12.70;99.90;;;;;;5030529;28;20306;-77
2022/11/02 01:40:40;;;;;;;60.70;36.53;;;12.70;99.90;;;;;;5043437;28;20217;-79
2022/11/02 01:43:31;;;;;;;60.30;36.53;;;12.60;99.90;;;;;;5024862;28;20221;-80
2022/11/02 01:46:24;;;;;;;64.45;36.80;;;12.60;99.90;;;;;;5042368;28;20632;-78
2022/11/02 01:49:18;;;;;;;62.17;36.58;;;12.60;99.90;;;;;;5028408;28;20712;-77
2022/11/02 01:52:09;;;;;;;59.60;36.53;;;12.70;99.90;;;;;;5037393;28;20228;-77
2022/11/02 01:55:02;;;;;;;62.30;36.78;;;12.70;99.90;;;;;;5045819;28;20224;-77
2022/11/02 01:57:56;;;;;;;65.82;38.20;;;12.70;99.90;;;;;;5043485;28;20846;-76
2022/11/02 02:00:45;;;;;;;64.43;36.85;;;12.60;99.90;;;;;;5030274;28;20313;-75
2022/11/02 02:03:37;;;;;;;59.40;35.58;;;12.70;99.90;;;;;;5034505;28;20229;-74
2022/11/02 02:06:30;;;;;;;63.03;35.60;;;12.70;99.90;;;;;;5026733;28;20221;-77
2022/11/02 02:09:20;;;;;;;66.20;37.03;;;12.70;99.90;;;;;;5043798;28;20221;-78
2022/11/02 02:12:09;;;;;;;64.97;37.20;;;12.60;99.90;;;;;;5039086;28;20783;-79
2022/11/02 02:14:59;;;;;;;68.80;37.50;;;12.70;99.90;;;;;;5051075;28;20403;-78
2022/11/02 02:17:56;;;;;;;66.22;36.20;;;12.70;99.90;;;;;;5051837;28;20294;-78
2022/11/02 02:21:12;;;;;;;72.93;36.90;;;12.70;99.90;;;;;;5037364;28;20575;-80
2022/11/02 02:24:35;;;;;;;73.15;37.92;;;12.70;99.90;;;;;;5041378;28;20323;-78
2022/11/02 02:27:30;;;;;;;76.13;37.25;;;12.60;99.90;;;;;;5024117;28;20217;-79
2022/11/02 02:30:20;;;;;;;83.18;39.55;;;12.70;99.90;;;;;;5057929;28;20226;-78
2022/11/02 02:33:13;;;;;;;79.95;39.40;;;12.60;99.90;;;;;;5056557;28;20220;-77
2022/11/02 02:36:07;;;;;;;76.45;39.70;;;12.60;99.90;;;;;;5044461;28;20238;-77
2022/11/02 02:39:01;;;;;;;85.28;40.53;;;12.70;99.90;;;;;;5057146;28;20227;-77
2022/11/02 02:41:57;;;;;;;90.35;41.53;;;12.70;99.90;;;;;;5077194;28;20223;-76
2022/11/02 02:44:54;;;;;;;93.78;42.25;;;12.80;99.90;;;;;;5056872;28;20228;-76
2022/11/02 02:47:50;;;;;;;94.57;42.47;;;12.70;99.90;;;;;;5049588;28;20220;-76
2022/11/02 02:50:44;;;;;;;93.95;42.95;;;12.70;99.90;;;;;;5039702;28;20229;-76
2022/11/02 02:53:41;;;;;;;93.97;42.38;;;12.70;99.90;;;;;;5029267;28;21226;-77
2022/11/02 02:56:34;;;;;;;92.32;42.67;;;12.80;99.90;;;;;;5028717;28;20232;-75
2022/11/02 02:59:27;;;;;;;95.55;44.40;;;12.80;99.90;;;;;;5026266;28;20237;-75
2022/11/02 03:02:22;;;;;;;106.65;46.03;;;12.80;99.90;;;;;;5025915;28;20734;-75
2022/11/02 03:05:27;;;;;;;110.18;48.08;;;12.70;99.90;;;;;;5038578;28;20874;-75
2022/11/02 03:08:17;;;;;;;99.05;45.08;;;12.70;99.90;;;;;;5025763;28;20228;-74
2022/11/02 03:11:13;;;;;;;115.03;48.92;;;12.70;99.90;;;;;;5041761;28;20229;-75
2022/11/02 03:14:13;;;;;;;113.38;48.28;;;12.70;99.90;;;;;;5024108;28;20312;-74
2022/11/02 03:17:13;;;;;;;115.95;49.67;;;12.70;99.90;;;;;;5041545;28;20227;-75
2022/11/02 03:20:09;;;;;;;114.57;48.92;;;12.70;99.90;;;;;;5026208;28;20322;-76
2022/11/02 03:23:10;;;;;;;118.82;49.50;;;12.80;99.90;;;;;;5025280;28;20225;-76
2022/11/02 03:26:03;;;;;;;118.97;49.22;;;12.80;99.90;;;;;;5037104;28;20223;-77
2022/11/02 03:29:01;;;;;;;130.65;52.45;;;12.80;99.90;;;;;;5052698;28;20221;-77
2022/11/02 03:31:56;;;;;;;126.55;51.47;;;12.80;99.90;;;;;;5025501;28;20232;-76
2022/11/02 03:34:48;;;;;;;114.47;50.17;;;12.80;99.90;;;;;;5036998;28;20221;-76
2022/11/02 03:37:45;;;;;;;133.50;52.85;;;12.70;99.90;;;;;;5029122;28;20306;-74
2022/11/02 03:40:42;;;;;;;117.32;49.70;;;12.80;99.90;;;;;;5055034;28;20224;-74
2022/11/02 03:43:33;;;;;;;113.05;50.10;;;12.90;99.90;;;;;;5039041;28;20219;-74
2022/11/02 03:46:24;;;;;;;131.60;51.60;;;12.90;99.90;;;;;;5024404;28;20231;-76
2022/11/02 03:49:18;;;;;;;119.40;51.53;;;13.00;99.90;;;;;;5039842;28;20232;-78
2022/11/02 03:52:12;;;;;;;126.88;51.80;;;12.90;99.90;;;;;;5020704;28;20228;-77
2022/11/02 03:55:07;;;;;;;124.63;52.03;;;13.00;99.90;;;;;;5044474;28;20302;-76
2022/11/02 03:57:59;;;;;;;136.02;52.30;;;13.00;99.90;;;;;;5028572;28;20232;-77
2022/11/02 04:00:54;;;;;;;126.50;51.30;;;13.00;99.90;;;;;;5054158;28;20260;-77
2022/11/02 04:03:46;;;;;;;130.43;52.45;;;13.00;99.90;;;;;;5050154;28;21536;-75
2022/11/02 04:06:35;;;;;;;136.55;52.33;;;13.00;99.90;;;;;;5041674;28;20217;-76
2022/11/02 04:09:24;;;;;;;142.98;56.75;;;13.00;99.90;;;;;;5044938;28;20225;-76
2022/11/02 04:15:21;;;;;;;132.38;54.00;;;13.10;99.90;;;;;;5053747;28;20294;-76
2022/11/02 04:21:16;;;;;;;143.27;55.75;;;13.10;99.90;;;;;;5037342;28;20224;-77
2022/11/02 04:27:11;;;;;;;150.63;58.53;;;13.20;99.90;;;;;;5044047;28;20234;-77
2022/11/02 04:30:08;;;;;;;153.70;58.38;;;13.10;99.90;;;;;;5054808;28;20261;-77
2022/11/02 04:36:23;;;;;;;157.75;60.28;;;13.10;99.90;;;;;;4977238;28;20231;-76
2022/11/02 04:39:15;;;;;;;161.20;60.10;;;13.00;99.90;;;;;;5042925;28;20240;-76
2022/11/02 04:42:04;;;;;;;172.18;61.35;;;13.00;99.90;;;;;;5042326;28;20220;-76
2022/11/02 04:44:58;;;;;;;161.93;61.78;;;13.00;99.90;;;;;;5044224;28;20312;-76
2022/11/02 04:47:48;;;;;;;165.50;63.10;;;13.00;99.90;;;;;;5029612;28;20216;-76
2022/11/02 04:50:38;;;;;;;157.38;60.97;;;13.10;99.90;;;;;;5030982;28;20237;-76
2022/11/02 04:53:29;;;;;;;156.35;62.25;;;13.10;99.90;;;;;;5032784;28;20800;-77
2022/11/02 04:56:18;;;;;;;162.50;62.17;;;13.20;99.90;;;;;;5025160;28;20221;-76
2022/11/02 04:59:08;;;;;;;168.57;63.42;;;13.10;99.90;;;;;;5042457;28;20224;-76
2022/11/02 05:01:58;;;;;;;158.23;63.30;;;13.10;99.90;;;;;;5030219;28;20221;-75
2022/11/02 05:04:47;;;;;;;163.05;63.28;;;13.20;99.90;;;;;;5043315;28;20719;-77
2022/11/02 05:07:38;;;;;;;150.52;60.78;;;13.20;99.90;;;;;;5028366;28;20903;-78
2022/11/02 05:10:26;;;;;;;148.85;62.53;;;13.10;99.90;;;;;;5030624;28;20224;-78
2022/11/02 05:13:17;;;;;;;167.95;64.30;;;13.10;99.90;;;;;;5023273;28;20232;-77
2022/11/02 05:16:07;;;;;;;160.15;63.60;;;13.20;99.90;;;;;;5023964;28;20240;-77
2022/11/02 05:18:56;;;;;;;141.43;62.13;;;13.20;99.90;;;;;;5056252;28;20225;-77
2022/11/02 05:21:45;;;;;;;154.35;62.33;;;13.20;99.90;;;;;;5054855;28;20224;-77
2022/11/02 05:24:36;;;;;;;144.57;60.78;;;13.20;99.90;;;;;;5059182;28;20671;-77
2022/11/02 05:27:25;;;;;;;144.75;62.75;;;13.20;99.90;;;;;;5030114;28;20244;-77
2022/11/02 05:30:14;;;;;;;146.13;59.33;;;13.20;99.90;;;;;;5040447;28;20676;-76
2022/11/02 05:33:04;;;;;;;150.90;62.00;;;13.20;99.90;;;;;;5054324;28;20270;-76
2022/11/02 05:35:55;;;;;;;136.23;59.35;;;13.20;99.90;;;;;;5026708;28;20216;-76
2022/11/02 05:38:44;;;;;;;149.32;60.75;;;13.20;99.90;;;;;;5029997;28;20221;-77
2022/11/02 05:41:35;;;;;;;135.57;61.78;;;13.20;99.90;;;;;;5026425;28;20228;-78
2022/11/02 05:44:25;;;;;;;144.30;60.85;;;13.20;99.90;;;;;;5027245;28;20480;-77
2022/11/02 05:47:14;;;;;;;148.70;61.20;;;13.20;99.90;;;;;;5056289;28;20240;-75
2022/11/02 05:50:03;;;;;;;142.07;60.88;;;13.20;99.90;;;;;;5026521;28;20350;-77
2022/11/02 05:52:52;;;;;;;133.45;57.92;;;13.20;99.90;;;;;;5055220;28;20225;-76
2022/11/02 05:55:40;;;;;;;140.15;60.95;;;13.20;99.90;;;;;;5041358;28;20232;-76
2022/11/02 05:58:31;;;;;;;152.00;62.38;;;13.20;99.90;;;;;;5040537;28;20611;-76
2022/11/02 06:01:20;;;;;;;139.05;59.25;;;13.20;99.90;;;;;;5025841;28;20225;-76
2022/11/02 06:04:08;;;;;;;144.10;62.17;;;13.20;99.90;;;;;;5042822;28;20232;-76
2022/11/02 06:06:58;;;;;;;136.32;58.65;;;13.20;99.90;;;;;;5041445;28;20221;-75
2022/11/02 06:09:46;;;;;;;138.82;59.67;;;13.20;99.90;;;;;;5042066;28;20247;-77
2022/11/02 06:12:35;;;;;;;147.55;59.80;;;13.30;99.90;;;;;;5041556;28;20235;-74
2022/11/02 06:15:25;;;;;;;138.45;58.55;;;13.30;99.90;;;;;;5027379;28;20225;-76
2022/11/02 06:18:14;;;;;;;129.68;56.22;;;13.30;99.90;;;;;;5037424;28;20244;-77
2022/11/02 06:21:03;;;;;;;145.80;57.35;;;13.30;99.90;;;;;;5041317;28;20224;-75
2022/11/02 06:23:52;;;;;;;134.02;58.10;;;13.40;99.90;;;;;;5029167;28;20715;-76
2022/11/02 06:26:41;;;;;;;133.98;56.95;;;13.40;99.90;;;;;;5030642;28;20246;-75
2022/11/02 06:29:30;;;;;;;124.65;54.83;;;13.40;99.90;;;;;;5045151;28;20221;-80
2022/11/02 06:32:21;;;;;;;135.27;54.85;;;13.40;99.90;;;;;;5036675;28;20304;-77
2022/11/02 06:35:11;;;;;;;125.22;52.97;;;13.40;99.90;;;;;;5050670;28;20232;-78
2022/11/02 06:37:59;;;;;;;122.28;55.03;;;13.50;99.90;;;;;;5043030;28;20789;-79
2022/11/02 06:40:56;;;;;;;120.78;53.88;;;13.40;99.90;;;;;;5041849;28;20244;-76
2022/11/02 06:43:44;;;;;;;113.32;51.08;;;13.40;99.90;;;;;;5041463;28;20779;-73
2022/11/02 06:46:33;;;;;;;123.75;52.45;;;13.50;99.90;;;;;;5029688;28;20239;-75
2022/11/02 06:49:25;;;;;;;114.40;49.25;;;13.50;99.90;;;;;;5043092;28;20699;-77
2022/11/02 06:52:14;;;;;;;111.13;48.50;;;13.50;99.90;;;;;;5040683;28;20221;-77
2022/11/02 06:55:02;;;;;;;101.57;45.15;;;13.50;99.90;;;;;;5042507;28;20737;-79
2022/11/02 06:57:52;;;;;;;90.95;43.28;;;13.60;99.90;;;;;;5057638;28;20236;-80
2022/11/02 07:00:40;;;;;;;98.30;42.17;;;13.60;99.90;;;;;;5032748;28;20244;-81
2022/11/02 07:03:29;;;;;;;89.82;41.60;;;13.60;99.90;;;;;;5040519;28;20236;-79
2022/11/02 07:06:19;;;;;;;84.07;40.90;;;13.70;99.90;;;;;;5045761;28;20402;-82
2022/11/02 07:09:08;;;;;;;84.55;40.70;;;13.70;99.90;;;;;;5028860;28;20221;-80
2022/11/02 07:11:57;;;;;;;81.00;41.63;;;13.70;99.90;;;;;;5036656;28;21212;-80
2022/11/02 07:14:46;;;;;;;81.13;40.60;;;13.80;99.90;;;;;;5046145;28;20603;-81
2022/11/02 07:17:38;;;;;;;78.40;36.97;;;13.80;99.90;;;;;;5031071;28;20246;-81
2022/11/02 07:20:29;;;;;;;66.15;33.53;;;13.80;99.90;;;;;;5047767;28;20308;-81
2022/11/02 07:23:22;;;;;;;63.17;33.75;;;13.80;99.90;;;;;;5038371;28;20587;-81
2022/11/02 07:26:11;;;;;;;68.75;33.58;;;13.90;99.90;;;;;;5040887;28;20225;-80
2022/11/02 07:29:00;;;;;;;61.05;32.13;;;14.00;99.90;;;;;;5037025;28;20224;-86
2022/11/02 07:31:48;;;;;;;57.40;31.10;;;14.00;99.90;;;;;;5036535;28;20708;-79
2022/11/02 07:34:37;;;;;;;55.08;29.30;;;14.10;99.90;;;;;;5028074;28;20683;-83
2022/11/02 07:37:26;;;;;;;53.53;29.38;;;14.00;99.90;;;;;;5037058;28;20224;-82
2022/11/02 07:40:16;;;;;;;56.90;31.85;;;14.10;99.90;;;;;;5042548;28;20241;-80
2022/11/02 07:43:06;;;;;;;52.22;29.90;;;14.20;99.90;;;;;;5040368;28;20225;-83
2022/11/02 07:46:07;;;;;;;51.95;28.85;;;14.20;99.90;;;;;;5038472;28;20641;-81
2022/11/02 07:48:55;;;;;;;57.03;29.42;;;14.30;99.90;;;;;;5013213;28;20218;-80
2022/11/02 07:51:44;;;;;;;50.88;29.45;;;14.30;99.90;;;;;;5022579;28;20977;-80
2022/11/02 07:54:33;;;;;;;50.70;28.90;;;14.30;99.90;;;;;;5014284;28;20887;-80
2022/11/02 07:57:23;;;;;;;50.92;27.90;;;14.20;99.90;;;;;;5026319;28;20736;-81
2022/11/02 08:00:13;;;;;;;49.97;26.98;;;14.30;99.90;;;;;;5021579;28;20249;-83
2022/11/02 08:03:02;;;;;;;52.75;30.08;;;14.30;99.90;;;;;;5029217;28;20218;-87
2022/11/02 08:05:52;;;;;;;51.60;29.20;;;14.30;99.90;;;;;;5036886;28;20343;-87
2022/11/02 08:08:41;;;;;;;55.42;29.77;;;14.30;99.90;;;;;;5022753;28;20230;-85
2022/11/02 08:11:30;;;;;;;55.92;30.85;;;14.40;99.90;;;;;;5007286;28;20225;-89
2022/11/02 08:14:20;;;;;;;59.13;31.55;;;14.40;99.90;;;;;;5043652;23;20219;-84
2022/11/02 08:17:09;;;;;;;56.28;31.90;;;14.50;99.90;;;;;;4983316;28;20246;-91
2022/11/02 08:19:58;;;;;;;60.55;31.95;;;14.50;99.90;;;;;;4976879;28;20710;-83
2022/11/02 08:22:46;;;;;;;57.65;31.17;;;14.70;99.90;;;;;;4986695;28;20233;-86
2022/11/02 08:25:35;;;;;;;54.45;30.92;;;14.60;99.90;;;;;;4984659;28;20227;-85
2022/11/02 08:28:26;;;;;;;60.30;31.30;;;14.80;99.90;;;;;;4984790;28;20230;-81
2022/11/02 08:31:17;;;;;;;59.42;33.05;;;14.80;99.90;;;;;;4984232;28;20226;-80
2022/11/02 08:34:06;;;;;;;55.90;31.35;;;14.80;99.90;;;;;;4982561;28;20230;-80
2022/11/02 08:36:55;;;;;;;55.22;30.83;;;14.90;99.90;;;;;;4982441;28;20710;-81
2022/11/02 08:39:44;;;;;;;48.38;29.73;;;14.90;99.90;;;;;;4969363;28;20293;-87
2022/11/02 08:42:33;;;;;;;48.45;30.17;;;14.80;99.90;;;;;;4963635;28;20231;-86
2022/11/02 08:45:21;;;;;;;57.25;31.42;;;14.80;99.90;;;;;;4983319;28;20230;-87
2022/11/02 08:48:12;;;;;;;54.65;33.17;;;14.90;99.90;;;;;;4983529;28;20211;-87
2022/11/02 08:51:01;;;;;;;62.13;34.42;;;15.00;99.90;;;;;;4982663;28;20220;-86
2022/11/02 08:53:50;;;;;;;55.25;34.47;;;15.10;99.90;;;;;;4981661;28;20211;-85
2022/11/02 08:56:39;;;;;;;58.65;34.88;;;15.30;99.90;;;;;;4968516;28;20237;-85
2022/11/02 08:59:28;;;;;;;53.90;33.95;;;15.30;99.90;;;;;;4984157;28;20708;-84
2022/11/02 09:02:17;;;;;;;52.60;33.97;;;15.20;99.90;;;;;;4977652;28;20234;-87
2022/11/02 09:05:08;;;;;;;56.80;36.63;;;15.20;99.90;;;;;;4978896;28;20234;-84
2022/11/02 09:07:59;;;;;;;56.75;35.13;;;15.20;99.90;;;;;;4984179;28;20226;-86
2022/11/02 09:10:50;;;;;;;56.85;36.40;;;15.20;99.90;;;;;;4978978;28;20226;-86
2022/11/02 09:13:39;;;;;;;54.53;34.97;;;15.10;99.90;;;;;;4983468;28;20233;-84
2022/11/02 09:16:28;;;;;;;50.15;33.85;;;15.10;99.90;;;;;;4947286;28;20223;-84
2022/11/02 09:19:17;;;;;;;51.22;33.05;;;15.20;99.90;;;;;;4949843;28;20235;-88
2022/11/02 09:22:07;;;;;;;45.80;31.67;;;15.20;99.90;;;;;;4967303;28;20239;-83
2022/11/02 09:24:56;;;;;;;47.58;31.85;;;15.20;99.90;;;;;;4967211;28;20225;-86
2022/11/02 09:27:45;;;;;;;50.30;33.40;;;15.20;99.90;;;;;;4962151;28;20224;-83
2022/11/02 09:30:40;;;;;;;48.92;33.17;;;15.10;99.90;;;;;;4965782;28;20227;-82
2022/11/02 09:33:29;;;;;;;53.40;34.78;;;15.10;99.90;;;;;;4969501;28;20234;-88
2022/11/02 09:36:18;;;;;;;42.70;31.75;;;15.20;99.90;;;;;;4962278;28;20224;-91
2022/11/02 09:39:08;;;;;;;47.38;31.92;;;15.20;99.90;;;;;;4984252;28;20254;-93
2022/11/02 09:42:07;;;;;;;51.40;32.20;;;15.20;99.90;;;;;;4960216;28;20230;-94
2022/11/02 09:44:59;;;;;;;51.92;32.53;;;15.10;99.90;;;;;;4971591;28;20215;-94
2022/11/02 09:47:56;;;;;;;44.63;30.98;;;15.20;99.90;;;;;;4972864;28;20221;-93
2022/11/02 09:51:11;;;;;;;49.83;31.67;;;15.10;99.90;;;;;;4959001;28;21036;-92
2022/11/02 09:54:11;;;;;;;49.83;30.77;;;15.10;99.90;;;;;;4960547;28;20231;-85
2022/11/02 09:57:10;;;;;;;50.53;30.67;;;15.20;99.90;;;;;;4960846;28;20224;-85
2022/11/02 09:59:59;;;;;;;43.05;29.00;;;15.20;99.90;;;;;;4964280;28;20235;-87
2022/11/02 10:02:57;;;;;;;50.97;29.73;;;15.10;99.90;;;;;;4956957;28;20223;-85
2022/11/02 10:05:55;;;;;;;43.50;28.13;;;15.10;99.90;;;;;;4965304;28;20231;-85
2022/11/02 10:08:51;;;;;;;43.45;28.20;;;15.00;99.90;;;;;;4967841;28;20738;-86
2022/11/02 10:11:49;;;;;;;40.30;27.98;;;15.00;99.90;;;;;;4967134;28;20228;-85
2022/11/02 10:14:45;;;;;;;44.90;28.90;;;15.10;99.90;;;;;;4968520;28;20317;-86
2022/11/02 10:17:37;;;;;;;50.95;28.00;;;15.10;99.90;;;;;;4978223;28;20234;-86
2022/11/02 10:20:28;;;;;;;46.05;28.40;;;15.10;99.90;;;;;;4982227;28;20223;-84
2022/11/02 10:23:25;;;;;;;46.13;27.35;;;15.10;99.90;;;;;;4977228;28;20227;-84
2022/11/02 10:26:22;;;;;;;40.80;27.50;;;15.10;99.90;;;;;;4970079;28;20230;-84
2022/11/02 10:29:18;;;;;;;44.88;27.40;;;15.20;99.90;;;;;;4977341;28;20727;-85
2022/11/02 10:32:10;;;;;;;44.65;27.48;;;15.10;99.90;;;;;;4963418;28;20229;-80
2022/11/02 10:35:01;;;;;;;48.65;27.27;;;15.20;99.90;;;;;;4980228;28;20230;-85
2022/11/02 10:38:21;;;;;;;43.53;27.17;;;15.10;99.90;;;;;;4965969;28;20693;-88
2022/11/02 10:41:30;;;;;;;41.50;25.73;;;15.20;99.90;;;;;;4978619;28;20226;-86
2022/11/02 10:44:41;;;;;;;43.10;26.58;;;15.20;99.90;;;;;;4965530;28;20230;-85
2022/11/02 10:47:34;;;;;;;45.22;26.58;;;15.30;99.90;;;;;;4968928;28;20215;-84
2022/11/02 10:50:46;;;;;;;39.83;25.60;;;15.30;99.90;;;;;;4967146;28;20219;-84
2022/11/02 10:53:36;;;;;;;39.17;25.55;;;15.30;99.90;;;;;;4978842;28;20254;-85
2022/11/02 10:56:31;;;;;;;43.35;26.70;;;15.30;99.90;;;;;;4978790;28;20311;-84
2022/11/02 10:59:22;;;;;;;42.88;26.40;;;15.20;99.90;;;;;;4965768;28;20227;-84
2022/11/02 11:02:14;;;;;;;41.90;27.25;;;15.20;99.90;;;;;;4971362;28;21051;-85
2022/11/02 11:05:13;;;;;;;42.15;26.27;;;15.20;99.90;;;;;;4979558;28;20571;-85
2022/11/02 11:08:04;;;;;;;45.55;25.98;;;15.20;99.90;;;;;;4975759;28;20223;-86
2022/11/02 11:10:53;;;;;;;41.65;25.38;;;15.20;99.90;;;;;;4975982;28;20226;-82
2022/11/02 11:13:43;;;;;;;38.70;25.20;;;15.30;99.90;;;;;;4979703;28;20226;-81
2022/11/02 11:16:53;;;;;;;35.63;24.67;;;15.30;99.90;;;;;;4981394;28;20227;-83
2022/11/02 11:19:49;;;;;;;39.95;25.13;;;15.40;99.90;;;;;;4979536;28;20259;-84
2022/11/02 11:22:40;;;;;;;37.35;23.33;;;15.40;99.90;;;;;;4978495;28;20218;-86
2022/11/02 11:25:31;;;;;;;34.72;23.17;;;15.40;99.90;;;;;;4968405;28;20235;-87
2022/11/02 11:28:43;;;;;;;32.30;23.60;;;15.40;99.90;;;;;;4978475;28;21037;-85
2022/11/02 11:31:31;;;;;;;34.63;22.13;;;15.40;99.90;;;;;;4979991;28;20257;-84
2022/11/02 11:34:26;;;;;;;30.67;21.98;;;15.50;99.90;;;;;;4978780;28;20219;-85
2022/11/02 11:37:16;;;;;;;35.22;22.42;;;15.60;99.90;;;;;;4978097;28;20226;-85
2022/11/02 11:40:29;;;;;;;30.52;22.42;;;15.50;99.90;;;;;;4949664;28;20230;-88
2022/11/02 11:43:29;;;;;;;33.10;21.90;;;15.50;99.90;;;;;;4950795;28;20229;-85
2022/11/02 11:59:01;;;;;;;28.83;20.48;;;15.50;99.90;;;;;;4904480;28;20719;-77
2022/11/02 12:01:53;;;;;;;30.70;20.60;;;15.40;99.90;;;;;;4987727;28;20219;-78
2022/11/02 12:04:44;;;;;;;29.58;20.48;;;15.20;99.90;;;;;;4971926;28;20306;-77
2022/11/02 12:07:56;;;;;;;30.60;20.98;;;15.20;99.90;;;;;;4976559;28;20224;-77
2022/11/02 12:11:17;;;;;;;27.58;18.95;;;15.40;99.90;;;;;;4975327;28;20230;-77
2022/11/02 12:14:21;;;;;;;32.00;20.58;;;15.40;99.90;;;;;;4973979;28;20241;-76
2022/11/02 12:17:24;;;;;;;29.45;20.20;;;15.40;99.90;;;;;;4979527;28;20297;-75
2022/11/02 12:20:29;;;;;;;28.17;19.58;;;15.50;99.90;;;;;;4993063;28;20230;-77
2022/11/02 12:23:43;;;;;;;27.52;19.88;;;15.40;99.90;;;;;;4981343;28;20230;-76
2022/11/02 12:26:44;;;;;;;29.85;20.25;;;15.30;99.90;;;;;;4983797;28;20293;-76
2022/11/02 12:30:01;;;;;;;26.92;19.75;;;15.30;99.90;;;;;;4978705;28;20223;-76
2022/11/02 12:33:08;;;;;;;27.92;20.02;;;15.30;99.90;;;;;;4984762;28;20354;-76
2022/11/02 12:36:10;;;;;;;30.52;20.02;;;15.40;99.90;;;;;;4981425;28;20681;-76
2022/11/02 12:39:08;;;;;;;27.42;18.55;;;15.60;99.90;;;;;;4972279;28;20587;-78
2022/11/02 12:42:16;;;;;;;23.75;18.35;;;15.50;99.90;;;;;;4985227;28;20223;-77
2022/11/02 12:45:25;;;;;;;28.30;18.45;;;15.60;99.90;;;;;;4986378;28;20357;-77
2022/11/02 12:48:24;;;;;;;28.23;19.05;;;15.70;99.90;;;;;;4990568;28;20231;-76
2022/11/02 12:51:24;;;;;;;25.90;17.73;;;15.70;99.90;;;;;;4986095;28;20250;-77
2022/11/02 12:54:20;;;;;;;28.45;17.75;;;15.90;99.90;;;;;;4972916;28;20300;-76
2022/11/02 12:57:17;;;;;;;25.25;17.50;;;15.80;99.90;;;;;;4986298;28;20950;-77
2022/11/02 13:00:18;;;;;;;23.77;16.92;;;15.90;99.90;;;;;;4982576;28;20210;-77
2022/11/02 13:03:20;;;;;;;20.65;15.82;;;15.80;99.90;;;;;;4977238;28;20234;-77
2022/11/02 13:06:13;;;;;;;23.20;16.23;;;15.60;99.90;;;;;;4980097;28;20223;-76
2022/11/02 13:09:07;;;;;;;22.38;15.32;;;15.50;99.90;;;;;;4978363;28;20364;-78
2022/11/02 13:12:02;;;;;;;28.33;16.65;;;15.40;99.90;;;;;;4978127;28;20223;-78
2022/11/02 13:14:54;;;;;;;22.73;15.73;;;15.30;99.90;;;;;;4982165;28;20222;-79
2022/11/02 13:17:46;;;;;;;26.20;16.75;;;15.40;99.90;;;;;;4982908;28;20214;-78
2022/11/02 13:20:42;;;;;;;27.30;16.92;;;15.30;99.90;;;;;;4978928;28;20230;-78
2022/11/02 13:23:36;;;;;;;27.83;17.23;;;15.30;99.90;;;;;;4967214;28;20237;-79
2022/11/02 13:26:29;;;;;;;26.42;16.90;;;15.30;99.90;;;;;;4985053;28;20223;-77
2022/11/02 13:29:21;;;;;;;24.23;16.55;;;15.40;99.90;;;;;;4978640;28;20313;-77
2022/11/02 13:32:19;;;;;;;30.58;17.77;;;15.30;99.90;;;;;;4981492;28;20219;-77
2022/11/02 13:35:17;;;;;;;26.50;17.60;;;15.30;99.90;;;;;;4979024;28;20215;-76
2022/11/02 13:38:16;;;;;;;26.92;17.15;;;15.30;99.90;;;;;;4972875;28;20247;-76
2022/11/02 13:41:31;;;;;;;24.83;18.08;;;15.30;99.90;;;;;;4977431;28;20230;-77
2022/11/02 13:44:33;;;;;;;25.40;18.45;;;15.10;99.90;;;;;;4983935;28;20230;-76
2022/11/02 13:47:41;;;;;;;25.77;17.98;;;15.10;99.90;;;;;;4980344;28;20989;-78
2022/11/02 13:50:32;;;;;;;29.42;18.30;;;15.00;99.90;;;;;;4975415;28;20559;-76
2022/11/02 13:53:26;;;;;;;29.33;16.88;;;15.00;99.90;;;;;;4974742;28;20579;-77
2022/11/02 13:56:23;;;;;;;23.25;17.27;;;14.90;99.90;;;;;;4982410;28;20250;-76
2022/11/02 13:59:21;;;;;;;26.92;18.00;;;14.80;99.90;;;;;;4976897;28;20226;-78
2022/11/02 14:02:16;;;;;;;33.22;19.17;;;14.80;99.90;;;;;;4971863;28;20732;-77
2022/11/02 14:05:08;;;;;;;29.80;19.73;;;14.80;99.90;;;;;;4976727;28;20253;-75
2022/11/02 14:08:00;;;;;;;31.55;19.00;;;14.80;99.90;;;;;;4967366;28;20223;-75
2022/11/02 14:11:04;;;;;;;27.45;18.35;;;14.70;99.90;;;;;;4975718;28;20249;-75
2022/11/02 14:14:15;;;;;;;30.88;18.88;;;14.70;99.90;;;;;;4979992;28;20229;-76
2022/11/02 14:17:12;;;;;;;28.75;18.67;;;14.70;99.90;;;;;;4977031;28;20790;-74
2022/11/02 14:20:03;;;;;;;28.95;19.63;;;14.70;99.90;;;;;;4966096;28;20608;-77
2022/11/02 14:23:25;;;;;;;25.85;20.10;;;14.60;99.90;;;;;;4982990;28;20730;-76
2022/11/02 14:26:54;;;;;;;32.42;21.55;;;14.60;99.90;;;;;;4982716;28;20266;-75
2022/11/02 14:29:51;;;;;;;33.80;21.42;;;14.50;99.90;;;;;;4982401;28;20218;-76
2022/11/02 14:32:55;;;;;;;32.80;21.25;;;14.40;99.90;;;;;;4983068;28;20254;-74
2022/11/02 14:35:53;;;;;;;36.35;22.50;;;14.30;99.90;;;;;;4983839;28;20226;-76
2022/11/02 14:39:09;;;;;;;31.23;22.08;;;14.30;99.90;;;;;;4983719;28;20702;-83
2022/11/02 14:42:31;;;;;;;32.28;22.23;;;14.30;99.90;;;;;;4980430;28;20242;-76
2022/11/02 14:45:30;;;;;;;32.50;22.77;;;14.30;99.90;;;;;;4981406;28;20233;-75
2022/11/02 14:48:18;;;;;;;34.95;23.23;;;14.20;99.90;;;;;;4985340;28;20375;-78
2022/11/02 14:51:16;;;;;;;33.83;22.85;;;14.20;99.90;;;;;;4992220;28;20293;-76
2022/11/02 14:54:13;;;;;;;38.05;23.67;;;14.20;99.90;;;;;;4978915;28;20229;-75
2022/11/02 14:57:06;;;;;;;34.28;24.88;;;14.10;99.90;;;;;;4981535;28;20605;-77
2022/11/02 14:59:57;;;;;;;35.45;26.02;;;14.10;99.90;;;;;;4984154;28;20358;-76
2022/11/02 15:02:46;;;;;;;32.60;25.08;;;14.10;99.90;;;;;;4981737;28;20222;-76
2022/11/02 15:05:38;;;;;;;35.78;24.90;;;14.10;99.90;;;;;;4977431;28;20222;-77